createdAt,value
2019-02-28T00:01:58.738Z,42.40
2019-02-28T00:04:32.746Z,39.37
2019-02-28T00:07:01.041Z,45.23
2019-02-28T00:09:30.100Z,40.67
2019-02-28T00:11:59.201Z,41.50
2019-02-28T00:14:28.501Z,39.73
2019-02-28T00:16:57.771Z,41.83
2019-02-28T00:19:27.044Z,44.83
2019-02-28T00:21:56.148Z,41.63
2019-02-28T00:24:27.197Z,46.23
2019-02-28T00:26:55.954Z,48.70
2019-02-28T00:29:24.978Z,43.17
2019-02-28T00:31:54.200Z,48.37
2019-02-28T00:34:23.486Z,42.93
2019-02-28T00:36:53.351Z,44.67
2019-02-28T00:39:23.088Z,44.57
2019-02-28T00:41:52.168Z,45.03
2019-02-28T00:44:22.421Z,43.97
2019-02-28T00:46:51.388Z,48.90
2019-02-28T00:49:20.411Z,48.00
2019-02-28T00:51:49.944Z,46.90
2019-02-28T00:54:18.898Z,45.53
2019-02-28T00:56:51.619Z,48.83
2019-02-28T00:59:19.080Z,48.80
2019-02-28T01:01:48.087Z,44.73
2019-02-28T01:04:30.708Z,48.17
2019-02-28T01:07:08.867Z,49.77
2019-02-28T01:09:38.087Z,46.03
2019-02-28T01:12:07.203Z,49.03
2019-02-28T01:14:37.679Z,48.80
2019-02-28T01:17:06.729Z,49.53
2019-02-28T01:19:36.062Z,46.63
2019-02-28T01:22:05.220Z,50.73
2019-02-28T01:24:35.418Z,46.50
2019-02-28T01:27:04.579Z,53.20
2019-02-28T01:29:35.694Z,51.27
2019-02-28T01:32:07.632Z,53.67
2019-02-28T01:34:36.663Z,49.63
2019-02-28T01:37:07.668Z,53.63
2019-02-28T01:39:36.674Z,50.97
2019-02-28T01:42:05.737Z,48.70
2019-02-28T01:44:35.825Z,50.70
2019-02-28T01:47:07.644Z,56.57
2019-02-28T01:49:36.735Z,50.57
2019-02-28T01:52:09.803Z,53.67
2019-02-28T01:54:47.779Z,54.83
2019-02-28T01:57:18.624Z,52.87
2019-02-28T01:59:49.062Z,52.13
2019-02-28T02:02:18.625Z,52.57
2019-02-28T02:04:48.020Z,53.13
2019-02-28T02:07:21.398Z,51.30
2019-02-28T02:09:50.740Z,54.07
2019-02-28T02:12:20.220Z,53.87
2019-02-28T02:14:50.141Z,57.47
2019-02-28T02:17:19.607Z,56.43
2019-02-28T02:19:49.354Z,58.80
2019-02-28T02:22:19.340Z,56.07
2019-02-28T02:24:50.128Z,55.10
2019-02-28T02:27:20.380Z,56.27
2019-02-28T02:29:50.908Z,59.70
2019-02-28T02:32:20.563Z,62.60
2019-02-28T02:34:50.356Z,62.90
2019-02-28T02:37:20.274Z,60.63
2019-02-28T02:39:51.273Z,59.10
2019-02-28T02:42:21.448Z,62.50
2019-02-28T02:44:50.939Z,59.30
2019-02-28T02:47:20.373Z,61.20
2019-02-28T02:49:56.181Z,64.77
2019-02-28T02:52:25.844Z,65.33
2019-02-28T02:54:53.118Z,71.27
2019-02-28T02:57:22.659Z,65.47
2019-02-28T02:59:52.038Z,72.33
2019-02-28T03:02:22.147Z,67.23
2019-02-28T03:04:57.917Z,66.03
2019-02-28T03:07:24.569Z,68.47
2019-02-28T03:09:53.708Z,65.87
2019-02-28T03:12:25.128Z,69.40
2019-02-28T03:14:59.567Z,69.30
2019-02-28T03:17:37.972Z,69.90
2019-02-28T03:20:09.605Z,69.27
2019-02-28T03:22:46.795Z,72.73
2019-02-28T03:25:16.536Z,66.27
2019-02-28T03:27:55.052Z,64.80
2019-02-28T03:30:28.483Z,74.30
2019-02-28T03:32:51.226Z,66.77
2019-02-28T03:35:21.131Z,74.30
2019-02-28T03:37:54.464Z,72.20
2019-02-28T03:40:23.863Z,69.87
2019-02-28T03:42:53.271Z,69.90
2019-02-28T03:45:23.019Z,74.07
2019-02-28T03:47:58.411Z,68.27
2019-02-28T03:50:23.861Z,66.00
2019-02-28T03:52:54.011Z,69.33
2019-02-28T03:55:23.952Z,73.23
2019-02-28T03:57:53.315Z,69.37
2019-02-28T04:00:22.700Z,64.70
2019-02-28T04:02:56.631Z,66.10
2019-02-28T04:05:28.136Z,64.07
2019-02-28T04:07:55.007Z,70.37
2019-02-28T04:10:24.551Z,64.67
2019-02-28T04:12:57.761Z,76.47
2019-02-28T04:15:27.043Z,66.80
2019-02-28T04:17:56.233Z,60.63
2019-02-28T04:20:25.398Z,65.90
2019-02-28T04:22:58.866Z,63.87
2019-02-28T04:25:25.666Z,66.90
2019-02-28T04:27:54.927Z,69.83
2019-02-28T04:30:24.236Z,70.03
2019-02-28T04:32:54.414Z,70.87
2019-02-28T04:35:25.507Z,64.87
2019-02-28T04:37:54.783Z,63.43
2019-02-28T04:40:26.906Z,66.00
2019-02-28T04:42:55.712Z,66.43
2019-02-28T04:45:26.186Z,63.43
2019-02-28T04:47:55.884Z,71.67
2019-02-28T04:50:25.109Z,68.37
2019-02-28T04:52:54.354Z,70.60
2019-02-28T04:55:23.641Z,62.33
2019-02-28T04:57:53.038Z,76.07
2019-02-28T05:00:22.842Z,66.20
2019-02-28T05:02:54.856Z,69.33
2019-02-28T05:05:23.367Z,70.73
2019-02-28T05:07:52.672Z,69.77
2019-02-28T05:10:22.215Z,71.40
2019-02-28T05:12:52.402Z,65.10
2019-02-28T05:15:21.850Z,70.57
2019-02-28T05:17:53.124Z,69.57
2019-02-28T05:20:22.518Z,67.40
2019-02-28T05:22:51.775Z,70.80
2019-02-28T05:25:20.859Z,65.50
2019-02-28T05:27:50.093Z,67.73
2019-02-28T05:30:19.940Z,71.70
2019-02-28T05:32:49.466Z,70.57
2019-02-28T05:35:25.151Z,70.37
2019-02-28T05:37:51.082Z,70.53
2019-02-28T05:40:25.506Z,65.57
2019-02-28T05:43:05.928Z,70.60
2019-02-28T05:45:36.008Z,74.23
2019-02-28T05:48:12.811Z,70.33
2019-02-28T05:50:44.345Z,75.00
2019-02-28T05:53:14.362Z,84.50
2019-02-28T05:55:44.763Z,71.47
2019-02-28T05:58:17.513Z,75.80
2019-02-28T06:00:46.097Z,74.20
2019-02-28T06:03:15.541Z,71.90
2019-02-28T06:05:46.429Z,79.03
2019-02-28T06:08:16.698Z,69.13
2019-02-28T06:10:47.148Z,76.23
2019-02-28T06:13:18.254Z,74.80
2019-02-28T06:15:48.148Z,78.27
2019-02-28T06:18:18.453Z,77.57
2019-02-28T06:20:50.977Z,73.13
2019-02-28T06:23:19.284Z,86.40
2019-02-28T06:25:48.707Z,76.33
2019-02-28T06:28:18.303Z,85.83
2019-02-28T06:30:47.851Z,86.77
2019-02-28T06:33:17.158Z,85.27
2019-02-28T06:35:49.581Z,84.93
2019-02-28T06:38:19.215Z,83.13
2019-02-28T06:40:49.155Z,92.43
2019-02-28T06:43:19.613Z,88.10
2019-02-28T06:45:49.140Z,91.60
2019-02-28T06:48:20.869Z,88.60
2019-02-28T06:50:49.138Z,87.07
2019-02-28T06:53:18.645Z,89.97
2019-02-28T06:55:48.196Z,95.60
2019-02-28T06:58:18.135Z,91.13
2019-02-28T07:00:48.097Z,92.03
2019-02-28T07:03:17.459Z,94.73
2019-02-28T07:05:46.470Z,92.33
2019-02-28T07:08:15.615Z,101.80
2019-02-28T07:10:48.552Z,101.10
2019-02-28T07:13:15.957Z,102.87
2019-02-28T07:15:45.099Z,95.93
2019-02-28T07:18:14.264Z,96.50
2019-02-28T07:20:43.261Z,100.27
2019-02-28T07:23:13.651Z,94.70
2019-02-28T07:25:44.281Z,95.40
2019-02-28T07:28:13.356Z,99.03
2019-02-28T07:30:42.413Z,106.33
2019-02-28T07:33:11.390Z,98.33
2019-02-28T07:35:43.088Z,97.23
2019-02-28T07:38:12.376Z,94.87
2019-02-28T07:40:41.492Z,98.00
2019-02-28T07:43:13.047Z,100.67
2019-02-28T07:45:41.737Z,93.83
2019-02-28T07:48:10.891Z,99.87
2019-02-28T07:50:40.078Z,101.20
2019-02-28T07:53:09.839Z,90.10
2019-02-28T07:55:39.154Z,94.47
2019-02-28T07:58:08.210Z,94.33
2019-02-28T08:00:37.328Z,96.37
2019-02-28T08:03:06.440Z,84.60
2019-02-28T08:05:35.630Z,96.50
2019-02-28T08:08:05.016Z,81.83
2019-02-28T08:10:34.273Z,80.30
2019-02-28T08:13:24.176Z,94.47
2019-02-28T08:15:56.229Z,87.73
2019-02-28T08:18:24.016Z,90.13
2019-02-28T08:20:53.035Z,88.83
2019-02-28T08:24:02.419Z,82.30
2019-02-28T08:26:53.587Z,103.37
2019-02-28T08:29:46.267Z,90.07
2019-02-28T08:32:13.002Z,78.00
2019-02-28T08:34:41.981Z,80.57
2019-02-28T08:37:11.188Z,88.47
2019-02-28T08:39:41.153Z,76.53
2019-02-28T08:42:11.236Z,77.20
2019-02-28T08:44:40.380Z,77.80
2019-02-28T08:47:09.461Z,85.00
2019-02-28T08:49:42.976Z,76.40
2019-02-28T08:52:09.665Z,70.23
2019-02-28T08:54:38.926Z,90.73
2019-02-28T08:57:08.137Z,91.80
2019-02-28T08:59:37.157Z,74.70
2019-02-28T09:02:06.346Z,74.87
2019-02-28T09:04:41.173Z,78.87
2019-02-28T09:07:06.803Z,74.87
2019-02-28T09:09:35.942Z,83.73
2019-02-28T09:12:05.299Z,74.63
2019-02-28T09:14:34.344Z,75.30
2019-02-28T09:17:03.361Z,72.93
2019-02-28T09:19:35.954Z,73.63
2019-02-28T09:22:03.426Z,74.83
2019-02-28T09:24:32.454Z,62.43
2019-02-28T09:27:04.066Z,61.23
2019-02-28T09:29:32.289Z,63.17
2019-02-28T09:32:01.516Z,59.90
2019-02-28T09:34:31.472Z,66.47
2019-02-28T09:37:00.667Z,55.87
2019-02-28T09:39:29.694Z,60.67
2019-02-28T09:41:58.839Z,64.10
2019-02-28T09:44:31.512Z,65.23
2019-02-28T09:47:00.085Z,57.87
2019-02-28T09:49:29.172Z,50.23
2019-02-28T09:51:58.383Z,50.93
2019-02-28T09:54:27.396Z,53.07
2019-02-28T09:56:56.469Z,47.97
2019-02-28T09:59:25.695Z,48.37
2019-02-28T10:02:01.466Z,54.87
2019-02-28T10:04:27.350Z,57.23
2019-02-28T10:06:56.975Z,45.17
2019-02-28T10:09:26.376Z,56.97
2019-02-28T10:11:55.555Z,57.83
2019-02-28T10:14:25.627Z,51.50
2019-02-28T10:16:55.771Z,48.63
2019-02-28T10:19:24.731Z,57.03
2019-02-28T10:21:53.898Z,51.43
2019-02-28T10:24:24.736Z,49.47
2019-02-28T10:26:53.867Z,48.63
2019-02-28T10:29:22.989Z,62.43
2019-02-28T10:31:52.056Z,55.87
2019-02-28T10:34:23.456Z,55.67
2019-02-28T10:36:52.953Z,47.90
2019-02-28T10:39:22.044Z,54.90
2019-02-28T10:41:51.059Z,53.83
2019-02-28T10:44:20.107Z,60.33
2019-02-28T10:46:50.302Z,60.70
2019-02-28T10:49:21.115Z,63.50
2019-02-28T10:51:50.875Z,51.30
2019-02-28T10:54:22.664Z,48.30
2019-02-28T10:56:52.013Z,48.70
2019-02-28T10:59:21.364Z,54.43
2019-02-28T11:01:52.170Z,50.07
2019-02-28T11:04:21.636Z,46.60
2019-02-28T11:06:50.921Z,49.83
2019-02-28T11:09:25.372Z,45.57
2019-02-28T11:11:54.194Z,48.63
2019-02-28T11:14:23.346Z,41.10
2019-02-28T11:16:59.153Z,44.67
2019-02-28T11:19:23.398Z,44.93
2019-02-28T11:21:52.639Z,47.43
2019-02-28T11:24:23.996Z,42.60
2019-02-28T11:26:55.558Z,58.53
2019-02-28T11:29:24.868Z,50.47
2019-02-28T11:31:55.176Z,53.00
2019-02-28T11:34:24.261Z,57.40
2019-02-28T11:36:53.406Z,46.93
2019-02-28T11:39:22.639Z,44.17
2019-02-28T11:41:52.593Z,43.40
2019-02-28T11:44:22.599Z,43.23
2019-02-28T11:49:34.968Z,47.07
2019-02-28T12:18:26.538Z,35.33
2019-02-28T16:22:52.087Z,29.10
2019-02-28T16:25:20.447Z,23.70
2019-02-28T16:27:49.452Z,21.40
2019-02-28T16:30:18.812Z,16.03
2019-02-28T16:32:49.115Z,16.37
2019-02-28T16:35:18.629Z,17.80
2019-02-28T16:37:47.613Z,19.00
2019-02-28T16:40:25.927Z,17.27
2019-02-28T16:42:51.353Z,14.60
2019-02-28T16:45:28.042Z,23.13
2019-02-28T16:47:59.528Z,19.77
2019-02-28T16:50:32.669Z,15.57
2019-02-28T16:53:01.939Z,14.20
2019-02-28T16:55:31.893Z,15.77
2019-02-28T16:58:01.180Z,10.90
2019-02-28T17:00:31.496Z,12.63
2019-02-28T17:03:07.331Z,12.43
2019-02-28T17:05:36.243Z,13.93
2019-02-28T17:08:07.323Z,19.43
2019-02-28T17:10:43.405Z,14.77
2019-02-28T17:13:42.884Z,16.93
2019-02-28T17:16:21.480Z,13.83
2019-02-28T17:18:53.508Z,12.67
2019-02-28T17:21:23.462Z,16.23
2019-02-28T17:23:52.782Z,13.20
2019-02-28T17:27:02.353Z,13.47
2019-02-28T17:30:11.034Z,13.27
2019-02-28T17:32:48.591Z,21.57
2019-02-28T17:35:17.917Z,17.53
2019-02-28T17:37:48.040Z,17.00
2019-02-28T17:40:17.322Z,19.73
2019-02-28T17:42:49.766Z,22.97
2019-02-28T17:45:26.978Z,14.00
2019-02-28T17:48:36.646Z,16.60
2019-02-28T17:51:18.832Z,18.47
2019-02-28T17:54:27.163Z,17.10
2019-02-28T17:57:41.649Z,20.70
2019-02-28T18:00:53.396Z,16.33
2019-02-28T18:04:04.384Z,22.33
2019-02-28T18:07:10.669Z,21.20
2019-02-28T18:10:15.878Z,19.50
2019-02-28T18:12:59.962Z,20.13
2019-02-28T18:16:25.468Z,22.33
2019-02-28T18:19:33.561Z,19.63
2019-02-28T18:26:14.255Z,25.17
2019-02-28T18:29:35.267Z,21.23
2019-02-28T18:32:04.982Z,28.83
2019-02-28T18:34:37.938Z,25.37
2019-02-28T18:37:11.834Z,25.53
2019-02-28T18:39:39.841Z,28.93
2019-02-28T18:43:27.012Z,20.50
2019-02-28T18:49:09.598Z,20.20
2019-02-28T18:51:41.913Z,21.47
2019-02-28T18:54:20.734Z,18.00
2019-02-28T19:00:59.445Z,14.90
2019-02-28T19:03:29.075Z,19.17
2019-02-28T19:05:59.331Z,20.93
2019-02-28T19:08:38.595Z,22.87
2019-02-28T19:11:08.792Z,19.00
2019-02-28T19:13:39.663Z,24.83
2019-02-28T19:16:12.510Z,16.53
2019-02-28T19:18:43.846Z,17.67
2019-02-28T19:21:17.821Z,21.43
2019-02-28T19:23:48.516Z,19.17
2019-02-28T19:26:25.147Z,21.20
2019-02-28T19:28:54.950Z,28.57
2019-02-28T19:31:24.753Z,26.13
2019-02-28T19:33:56.758Z,21.87
2019-02-28T19:36:30.759Z,22.77
2019-02-28T19:39:05.859Z,18.63
2019-02-28T19:41:41.880Z,22.60
2019-02-28T19:44:15.068Z,21.97
2019-02-28T19:46:44.990Z,20.30
2019-02-28T19:49:15.058Z,20.00
2019-02-28T19:51:46.167Z,21.47
2019-02-28T19:54:17.525Z,21.47
2019-02-28T19:56:47.236Z,15.43
2019-02-28T19:59:23.322Z,15.83
2019-02-28T20:01:53.130Z,23.00
2019-02-28T20:04:24.919Z,16.57
2019-02-28T20:06:54.659Z,14.93
2019-02-28T20:09:30.187Z,13.50
2019-02-28T20:12:02.750Z,19.23
2019-02-28T20:14:33.862Z,15.60
2019-02-28T20:17:03.855Z,18.67
2019-02-28T20:19:35.763Z,12.93
2019-02-28T20:22:08.686Z,18.93
2019-02-28T20:24:38.229Z,19.77
2019-02-28T20:27:08.512Z,11.77
2019-02-28T20:29:41.878Z,13.53
2019-02-28T20:32:56.426Z,14.50
2019-02-28T20:35:30.049Z,15.97
2019-02-28T20:38:33.087Z,12.70
2019-02-28T20:41:15.742Z,15.97
2019-02-28T20:43:46.660Z,18.23
2019-02-28T20:46:21.650Z,19.00
2019-02-28T20:48:56.028Z,19.47
2019-02-28T20:51:28.049Z,15.23
2019-02-28T20:54:01.740Z,23.77
2019-02-28T20:56:32.137Z,16.00
2019-02-28T20:59:04.230Z,18.40
2019-02-28T21:01:34.459Z,18.37
2019-02-28T21:04:09.807Z,17.60
2019-02-28T21:06:39.435Z,18.00
2019-02-28T21:09:08.934Z,14.10
2019-02-28T21:11:50.926Z,22.43
2019-02-28T21:14:20.181Z,18.27
2019-02-28T21:16:50.029Z,20.07
2019-02-28T21:19:19.708Z,16.20
2019-02-28T21:21:49.335Z,14.80
2019-02-28T21:24:19.005Z,20.47
2019-02-28T21:26:48.953Z,20.93
2019-02-28T21:29:24.638Z,19.00
2019-02-28T21:31:55.850Z,16.83
2019-02-28T21:34:25.934Z,21.00
2019-02-28T21:37:02.168Z,21.40
2019-02-28T21:39:29.293Z,18.07
2019-02-28T21:41:59.544Z,17.47
2019-02-28T21:44:33.087Z,19.10
2019-02-28T21:47:05.277Z,18.93
2019-02-28T21:49:35.326Z,18.93
2019-02-28T21:52:05.250Z,18.83
2019-02-28T21:54:39.364Z,20.80
2019-02-28T21:57:16.260Z,20.90
2019-02-28T21:59:46.016Z,20.40
2019-02-28T22:02:18.740Z,16.53
2019-02-28T22:04:49.511Z,20.77
2019-02-28T22:07:24.772Z,20.10
2019-02-28T22:09:56.558Z,21.47
2019-02-28T22:12:26.232Z,24.00
2019-02-28T22:15:02.325Z,20.27
2019-02-28T22:17:34.091Z,19.33
2019-02-28T22:20:03.920Z,20.93
2019-02-28T22:22:40.658Z,23.03
2019-02-28T22:25:21.604Z,21.57
2019-02-28T22:27:59.577Z,20.73
2019-02-28T22:30:56.187Z,25.93
2019-02-28T22:33:48.820Z,19.20
2019-02-28T22:36:30.503Z,25.10
2019-02-28T22:39:00.387Z,28.33
2019-02-28T22:41:32.046Z,21.33
2019-02-28T22:44:01.591Z,21.00
2019-02-28T22:46:35.044Z,26.37
2019-02-28T22:49:08.688Z,24.20
2019-02-28T22:51:44.120Z,22.97
2019-02-28T22:54:16.442Z,25.97
2019-02-28T22:56:46.211Z,23.73
2019-02-28T22:59:21.261Z,29.17
2019-02-28T23:01:52.085Z,23.13
2019-02-28T23:04:25.947Z,21.93
2019-02-28T23:06:55.724Z,23.23
2019-02-28T23:09:28.475Z,20.13
2019-02-28T23:12:06.144Z,20.50
2019-02-28T23:14:38.136Z,20.63
2019-02-28T23:17:10.214Z,21.80
2019-02-28T23:19:43.256Z,25.17
2019-02-28T23:22:16.900Z,23.60
2019-02-28T23:24:46.704Z,21.77
2019-02-28T23:27:19.796Z,19.97
2019-02-28T23:30:48.493Z,19.33
2019-02-28T23:33:27.022Z,19.10
2019-02-28T23:35:56.629Z,25.67
2019-02-28T23:38:26.198Z,20.17
2019-02-28T23:40:58.048Z,20.07
2019-02-28T23:43:27.494Z,20.00
2019-02-28T23:45:57.122Z,20.60
2019-02-28T23:48:26.689Z,20.23
2019-02-28T23:50:59.735Z,19.83
2019-02-28T23:53:33.104Z,21.00
2019-02-28T23:56:05.540Z,20.53
2019-02-28T23:58:35.206Z,22.63
